sensor_id;sensor_type;location;lat;lon;timestamp;P1;durP1;ratioP1;P2;durP2;ratioP2
72085;SDS011;64750;52.134;5.424;2023-04-30T00:01:24;7.45;;;6.53;;
72085;SDS011;64750;52.134;5.424;2023-04-30T00:03:51;7.07;;;6.38;;
72085;SDS011;64750;52.134;5.424;2023-04-30T00:06:17;8.10;;;6.35;;
72085;SDS011;64750;52.134;5.424;2023-04-30T00:08:44;7.55;;;6.20;;
72085;SDS011;64750;52.134;5.424;2023-04-30T00:11:10;7.00;;;6.33;;
72085;SDS011;64750;52.134;5.424;2023-04-30T00:13:36;7.53;;;6.38;;
72085;SDS011;64750;52.134;5.424;2023-04-30T00:16:03;8.70;;;6.45;;
72085;SDS011;64750;52.134;5.424;2023-04-30T00:18:30;7.80;;;6.47;;
72085;SDS011;64750;52.134;5.424;2023-04-30T00:20:57;6.65;;;6.05;;
72085;SDS011;64750;52.134;5.424;2023-04-30T00:23:23;11.27;;;6.37;;
72085;SDS011;64750;52.134;5.424;2023-04-30T00:25:50;7.50;;;6.10;;
72085;SDS011;64750;52.134;5.424;2023-04-30T00:28:16;13.18;;;6.30;;
72085;SDS011;64750;52.134;5.424;2023-04-30T00:30:43;7.45;;;6.75;;
72085;SDS011;64750;52.134;5.424;2023-04-30T00:33:10;8.52;;;6.63;;
72085;SDS011;64750;52.134;5.424;2023-04-30T00:35:37;8.87;;;6.43;;
72085;SDS011;64750;52.134;5.424;2023-04-30T00:38:03;8.18;;;6.53;;
72085;SDS011;64750;52.134;5.424;2023-04-30T00:40:30;8.65;;;6.07;;
72085;SDS011;64750;52.134;5.424;2023-04-30T00:42:58;7.65;;;6.95;;
72085;SDS011;64750;52.134;5.424;2023-04-30T00:45:25;9.00;;;7.50;;
72085;SDS011;64750;52.134;5.424;2023-04-30T00:47:51;7.70;;;6.93;;
72085;SDS011;64750;52.134;5.424;2023-04-30T00:50:18;8.68;;;6.63;;
72085;SDS011;64750;52.134;5.424;2023-04-30T00:52:44;11.02;;;6.63;;
72085;SDS011;64750;52.134;5.424;2023-04-30T00:55:11;10.48;;;6.80;;
72085;SDS011;64750;52.134;5.424;2023-04-30T00:57:38;8.18;;;6.63;;
72085;SDS011;64750;52.134;5.424;2023-04-30T01:00:06;9.70;;;6.83;;
72085;SDS011;64750;52.134;5.424;2023-04-30T01:02:36;10.68;;;6.72;;
72085;SDS011;64750;52.134;5.424;2023-04-30T01:05:03;6.65;;;5.88;;
72085;SDS011;64750;52.134;5.424;2023-04-30T01:07:30;7.82;;;6.65;;
72085;SDS011;64750;52.134;5.424;2023-04-30T01:09:57;9.98;;;7.43;;
72085;SDS011;64750;52.134;5.424;2023-04-30T01:17:51;8.30;;;6.47;;
72085;SDS011;64750;52.134;5.424;2023-04-30T01:20:22;8.25;;;5.90;;
72085;SDS011;64750;52.134;5.424;2023-04-30T01:22:51;10.02;;;6.43;;
72085;SDS011;64750;52.134;5.424;2023-04-30T01:28:02;7.38;;;6.13;;
72085;SDS011;64750;52.134;5.424;2023-04-30T01:30:31;10.35;;;6.78;;
72085;SDS011;64750;52.134;5.424;2023-04-30T01:32:58;7.22;;;6.35;;
72085;SDS011;64750;52.134;5.424;2023-04-30T01:38:23;7.63;;;6.83;;
72085;SDS011;64750;52.134;5.424;2023-04-30T01:41:12;7.45;;;6.57;;
72085;SDS011;64750;52.134;5.424;2023-04-30T01:44:00;8.13;;;6.10;;
72085;SDS011;64750;52.134;5.424;2023-04-30T01:46:37;6.68;;;6.07;;
72085;SDS011;64750;52.134;5.424;2023-04-30T01:49:22;9.30;;;6.35;;
72085;SDS011;64750;52.134;5.424;2023-04-30T01:55:13;7.80;;;6.18;;
72085;SDS011;64750;52.134;5.424;2023-04-30T01:57:45;8.07;;;6.03;;
72085;SDS011;64750;52.134;5.424;2023-04-30T02:00:25;6.65;;;6.05;;
72085;SDS011;64750;52.134;5.424;2023-04-30T02:02:52;8.57;;;6.68;;
72085;SDS011;64750;52.134;5.424;2023-04-30T02:05:19;9.30;;;6.37;;
72085;SDS011;64750;52.134;5.424;2023-04-30T02:07:47;7.03;;;6.30;;
72085;SDS011;64750;52.134;5.424;2023-04-30T02:10:16;6.40;;;5.82;;
72085;SDS011;64750;52.134;5.424;2023-04-30T02:12:43;7.05;;;6.32;;
72085;SDS011;64750;52.134;5.424;2023-04-30T02:15:10;7.07;;;6.30;;
72085;SDS011;64750;52.134;5.424;2023-04-30T02:17:36;7.43;;;6.60;;
72085;SDS011;64750;52.134;5.424;2023-04-30T02:20:03;7.47;;;6.78;;
72085;SDS011;64750;52.134;5.424;2023-04-30T02:22:30;8.32;;;5.88;;
72085;SDS011;64750;52.134;5.424;2023-04-30T02:24:56;6.63;;;6.00;;
72085;SDS011;64750;52.134;5.424;2023-04-30T02:27:23;9.20;;;6.10;;
72085;SDS011;64750;52.134;5.424;2023-04-30T02:29:52;6.87;;;5.97;;
72085;SDS011;64750;52.134;5.424;2023-04-30T02:32:19;7.50;;;6.90;;
72085;SDS011;64750;52.134;5.424;2023-04-30T02:34:45;7.20;;;6.40;;
72085;SDS011;64750;52.134;5.424;2023-04-30T02:37:12;9.23;;;6.30;;
72085;SDS011;64750;52.134;5.424;2023-04-30T02:39:38;7.30;;;5.97;;
72085;SDS011;64750;52.134;5.424;2023-04-30T02:42:04;8.70;;;6.17;;
72085;SDS011;64750;52.134;5.424;2023-04-30T02:44:32;6.10;;;5.50;;
72085;SDS011;64750;52.134;5.424;2023-04-30T02:46:59;7.78;;;6.15;;
72085;SDS011;64750;52.134;5.424;2023-04-30T02:49:26;9.73;;;6.22;;
72085;SDS011;64750;52.134;5.424;2023-04-30T02:51:53;6.55;;;5.85;;
72085;SDS011;64750;52.134;5.424;2023-04-30T02:54:20;6.40;;;5.27;;
72085;SDS011;64750;52.134;5.424;2023-04-30T02:56:46;6.03;;;5.43;;
72085;SDS011;64750;52.134;5.424;2023-04-30T02:59:13;6.25;;;5.65;;
72085;SDS011;64750;52.134;5.424;2023-04-30T03:01:39;8.05;;;5.57;;
72085;SDS011;64750;52.134;5.424;2023-04-30T03:04:06;6.47;;;5.90;;
72085;SDS011;64750;52.134;5.424;2023-04-30T03:06:32;9.93;;;6.10;;
72085;SDS011;64750;52.134;5.424;2023-04-30T03:08:59;6.47;;;5.88;;
72085;SDS011;64750;52.134;5.424;2023-04-30T03:11:26;6.93;;;6.22;;
72085;SDS011;64750;52.134;5.424;2023-04-30T03:13:52;6.63;;;5.95;;
72085;SDS011;64750;52.134;5.424;2023-04-30T03:16:19;6.78;;;6.10;;
72085;SDS011;64750;52.134;5.424;2023-04-30T03:18:47;6.07;;;5.50;;
72085;SDS011;64750;52.134;5.424;2023-04-30T03:21:14;6.38;;;5.88;;
72085;SDS011;64750;52.134;5.424;2023-04-30T03:23:40;7.47;;;6.05;;
72085;SDS011;64750;52.134;5.424;2023-04-30T03:26:07;6.90;;;6.25;;
72085;SDS011;64750;52.134;5.424;2023-04-30T03:28:33;6.93;;;5.40;;
72085;SDS011;64750;52.134;5.424;2023-04-30T03:31:00;6.50;;;5.70;;
72085;SDS011;64750;52.134;5.424;2023-04-30T03:33:33;6.40;;;5.13;;
72085;SDS011;64750;52.134;5.424;2023-04-30T03:36:00;6.32;;;5.43;;
72085;SDS011;64750;52.134;5.424;2023-04-30T03:38:26;7.90;;;5.68;;
72085;SDS011;64750;52.134;5.424;2023-04-30T03:40:53;6.22;;;5.63;;
72085;SDS011;64750;52.134;5.424;2023-04-30T03:43:19;6.13;;;5.53;;
72085;SDS011;64750;52.134;5.424;2023-04-30T03:45:47;5.60;;;5.15;;
72085;SDS011;64750;52.134;5.424;2023-04-30T03:48:13;7.70;;;6.50;;
72085;SDS011;64750;52.134;5.424;2023-04-30T03:50:40;5.25;;;4.82;;
72085;SDS011;64750;52.134;5.424;2023-04-30T03:53:06;9.93;;;5.88;;
72085;SDS011;64750;52.134;5.424;2023-04-30T03:55:33;7.30;;;5.33;;
72085;SDS011;64750;52.134;5.424;2023-04-30T03:57:59;5.60;;;5.10;;
72085;SDS011;64750;52.134;5.424;2023-04-30T04:00:26;8.95;;;5.90;;
72085;SDS011;64750;52.134;5.424;2023-04-30T04:02:53;10.02;;;5.25;;
72085;SDS011;64750;52.134;5.424;2023-04-30T04:05:20;7.32;;;5.70;;
72085;SDS011;64750;52.134;5.424;2023-04-30T04:07:46;5.57;;;5.10;;
72085;SDS011;64750;52.134;5.424;2023-04-30T04:10:12;6.15;;;5.53;;
72085;SDS011;64750;52.134;5.424;2023-04-30T04:12:39;7.15;;;5.88;;
72085;SDS011;64750;52.134;5.424;2023-04-30T04:15:06;5.70;;;5.20;;
72085;SDS011;64750;52.134;5.424;2023-04-30T04:17:33;6.68;;;5.88;;
72085;SDS011;64750;52.134;5.424;2023-04-30T04:19:59;5.77;;;5.30;;
72085;SDS011;64750;52.134;5.424;2023-04-30T04:22:25;6.05;;;5.50;;
72085;SDS011;64750;52.134;5.424;2023-04-30T04:24:52;7.13;;;5.50;;
72085;SDS011;64750;52.134;5.424;2023-04-30T04:27:19;8.18;;;5.72;;
72085;SDS011;64750;52.134;5.424;2023-04-30T04:29:45;7.20;;;4.72;;
72085;SDS011;64750;52.134;5.424;2023-04-30T04:32:13;7.10;;;5.47;;
72085;SDS011;64750;52.134;5.424;2023-04-30T04:34:39;7.45;;;5.35;;
72085;SDS011;64750;52.134;5.424;2023-04-30T04:37:06;6.68;;;5.68;;
72085;SDS011;64750;52.134;5.424;2023-04-30T04:39:33;6.43;;;5.85;;
72085;SDS011;64750;52.134;5.424;2023-04-30T04:42:01;6.80;;;6.10;;
72085;SDS011;64750;52.134;5.424;2023-04-30T04:44:28;6.77;;;4.70;;
72085;SDS011;64750;52.134;5.424;2023-04-30T04:46:55;8.07;;;5.40;;
72085;SDS011;64750;52.134;5.424;2023-04-30T04:49:22;7.35;;;5.00;;
72085;SDS011;64750;52.134;5.424;2023-04-30T04:51:48;5.65;;;5.15;;
72085;SDS011;64750;52.134;5.424;2023-04-30T04:54:14;6.60;;;4.85;;
72085;SDS011;64750;52.134;5.424;2023-04-30T04:56:41;5.27;;;4.87;;
72085;SDS011;64750;52.134;5.424;2023-04-30T04:59:07;5.35;;;4.85;;
72085;SDS011;64750;52.134;5.424;2023-04-30T05:01:34;6.85;;;5.57;;
72085;SDS011;64750;52.134;5.424;2023-04-30T05:04:00;8.05;;;4.93;;
72085;SDS011;64750;52.134;5.424;2023-04-30T05:06:27;6.07;;;5.47;;
72085;SDS011;64750;52.134;5.424;2023-04-30T05:08:53;6.20;;;5.60;;
72085;SDS011;64750;52.134;5.424;2023-04-30T05:11:20;8.50;;;5.25;;
72085;SDS011;64750;52.134;5.424;2023-04-30T05:13:47;5.35;;;4.80;;
72085;SDS011;64750;52.134;5.424;2023-04-30T05:16:13;6.43;;;4.97;;
72085;SDS011;64750;52.134;5.424;2023-04-30T05:18:40;5.82;;;5.10;;
72085;SDS011;64750;52.134;5.424;2023-04-30T05:21:06;12.07;;;5.13;;
72085;SDS011;64750;52.134;5.424;2023-04-30T05:23:33;5.20;;;4.72;;
72085;SDS011;64750;52.134;5.424;2023-04-30T05:25:59;7.93;;;5.03;;
72085;SDS011;64750;52.134;5.424;2023-04-30T05:28:25;6.95;;;5.18;;
72085;SDS011;64750;52.134;5.424;2023-04-30T05:30:52;5.50;;;4.75;;
72085;SDS011;64750;52.134;5.424;2023-04-30T05:33:18;5.23;;;4.73;;
72085;SDS011;64750;52.134;5.424;2023-04-30T05:35:45;7.70;;;5.70;;
72085;SDS011;64750;52.134;5.424;2023-04-30T05:38:11;5.45;;;5.05;;
72085;SDS011;64750;52.134;5.424;2023-04-30T05:40:38;5.28;;;4.72;;
72085;SDS011;64750;52.134;5.424;2023-04-30T05:43:05;7.00;;;5.40;;
72085;SDS011;64750;52.134;5.424;2023-04-30T05:45:32;7.20;;;4.87;;
72085;SDS011;64750;52.134;5.424;2023-04-30T05:47:58;5.57;;;5.00;;
72085;SDS011;64750;52.134;5.424;2023-04-30T05:50:26;5.03;;;4.63;;
72085;SDS011;64750;52.134;5.424;2023-04-30T05:52:53;5.28;;;4.78;;
72085;SDS011;64750;52.134;5.424;2023-04-30T05:55:19;11.43;;;5.60;;
72085;SDS011;64750;52.134;5.424;2023-04-30T05:57:46;5.20;;;4.70;;
72085;SDS011;64750;52.134;5.424;2023-04-30T06:00:12;5.85;;;5.18;;
72085;SDS011;64750;52.134;5.424;2023-04-30T06:02:39;5.80;;;4.38;;
72085;SDS011;64750;52.134;5.424;2023-04-30T06:05:06;5.93;;;5.00;;
72085;SDS011;64750;52.134;5.424;2023-04-30T06:07:34;6.28;;;5.70;;
72085;SDS011;64750;52.134;5.424;2023-04-30T06:10:00;4.87;;;4.57;;
72085;SDS011;64750;52.134;5.424;2023-04-30T06:12:26;6.82;;;5.38;;
72085;SDS011;64750;52.134;5.424;2023-04-30T06:14:53;6.68;;;5.20;;
72085;SDS011;64750;52.134;5.424;2023-04-30T06:17:19;6.35;;;5.10;;
72085;SDS011;64750;52.134;5.424;2023-04-30T06:19:46;5.95;;;5.35;;
72085;SDS011;64750;52.134;5.424;2023-04-30T06:22:12;9.87;;;5.57;;
72085;SDS011;64750;52.134;5.424;2023-04-30T06:24:39;6.93;;;5.30;;
72085;SDS011;64750;52.134;5.424;2023-04-30T06:27:05;9.43;;;5.32;;
72085;SDS011;64750;52.134;5.424;2023-04-30T06:29:32;8.60;;;4.95;;
72085;SDS011;64750;52.134;5.424;2023-04-30T06:31:58;9.13;;;5.30;;
72085;SDS011;64750;52.134;5.424;2023-04-30T06:34:24;7.10;;;4.97;;
72085;SDS011;64750;52.134;5.424;2023-04-30T06:36:51;5.30;;;4.88;;
72085;SDS011;64750;52.134;5.424;2023-04-30T06:39:18;5.45;;;5.05;;
72085;SDS011;64750;52.134;5.424;2023-04-30T06:41:44;4.70;;;4.30;;
72085;SDS011;64750;52.134;5.424;2023-04-30T06:44:12;7.60;;;4.97;;
72085;SDS011;64750;52.134;5.424;2023-04-30T06:46:39;6.33;;;5.37;;
72085;SDS011;64750;52.134;5.424;2023-04-30T06:49:06;5.93;;;4.75;;
72085;SDS011;64750;52.134;5.424;2023-04-30T06:51:32;5.47;;;4.65;;
72085;SDS011;64750;52.134;5.424;2023-04-30T06:53:59;8.52;;;5.38;;
72085;SDS011;64750;52.134;5.424;2023-04-30T06:56:25;7.95;;;4.72;;
72085;SDS011;64750;52.134;5.424;2023-04-30T06:58:52;5.63;;;4.83;;
72085;SDS011;64750;52.134;5.424;2023-04-30T07:01:18;8.00;;;4.90;;
72085;SDS011;64750;52.134;5.424;2023-04-30T07:03:45;8.40;;;4.53;;
72085;SDS011;64750;52.134;5.424;2023-04-30T07:06:12;7.25;;;4.68;;
72085;SDS011;64750;52.134;5.424;2023-04-30T07:08:38;4.88;;;4.40;;
72085;SDS011;64750;52.134;5.424;2023-04-30T07:11:06;5.07;;;3.93;;
72085;SDS011;64750;52.134;5.424;2023-04-30T07:13:33;5.13;;;4.63;;
72085;SDS011;64750;52.134;5.424;2023-04-30T07:15:59;5.70;;;4.30;;
72085;SDS011;64750;52.134;5.424;2023-04-30T07:18:26;5.90;;;4.32;;
72085;SDS011;64750;52.134;5.424;2023-04-30T07:20:52;4.65;;;4.25;;
72085;SDS011;64750;52.134;5.424;2023-04-30T07:23:19;7.43;;;4.63;;
72085;SDS011;64750;52.134;5.424;2023-04-30T07:25:45;8.05;;;3.97;;
72085;SDS011;64750;52.134;5.424;2023-04-30T07:28:12;4.78;;;4.32;;
72085;SDS011;64750;52.134;5.424;2023-04-30T07:30:38;4.20;;;3.85;;
72085;SDS011;64750;52.134;5.424;2023-04-30T07:33:05;6.95;;;3.78;;
72085;SDS011;64750;52.134;5.424;2023-04-30T07:35:33;4.60;;;4.20;;
72085;SDS011;64750;52.134;5.424;2023-04-30T07:38:00;6.07;;;4.40;;
72085;SDS011;64750;52.134;5.424;2023-04-30T07:40:26;7.65;;;4.30;;
72085;SDS011;64750;52.134;5.424;2023-04-30T07:43:01;6.90;;;4.75;;
72085;SDS011;64750;52.134;5.424;2023-04-30T07:45:29;6.40;;;4.65;;
72085;SDS011;64750;52.134;5.424;2023-04-30T07:47:56;7.63;;;4.83;;
72085;SDS011;64750;52.134;5.424;2023-04-30T07:50:23;4.90;;;4.40;;
72085;SDS011;64750;52.134;5.424;2023-04-30T07:52:49;5.45;;;4.28;;
72085;SDS011;64750;52.134;5.424;2023-04-30T07:55:16;4.85;;;3.97;;
72085;SDS011;64750;52.134;5.424;2023-04-30T07:57:42;5.63;;;4.75;;
72085;SDS011;64750;52.134;5.424;2023-04-30T08:00:09;5.77;;;4.43;;
72085;SDS011;64750;52.134;5.424;2023-04-30T08:02:35;6.05;;;4.93;;
72085;SDS011;64750;52.134;5.424;2023-04-30T08:05:02;6.28;;;4.80;;
72085;SDS011;64750;52.134;5.424;2023-04-30T08:07:29;6.13;;;4.80;;
72085;SDS011;64750;52.134;5.424;2023-04-30T08:09:55;5.20;;;4.13;;
72085;SDS011;64750;52.134;5.424;2023-04-30T08:12:22;4.77;;;4.37;;
72085;SDS011;64750;52.134;5.424;2023-04-30T08:14:49;7.80;;;4.75;;
72085;SDS011;64750;52.134;5.424;2023-04-30T08:17:15;8.50;;;4.78;;
72085;SDS011;64750;52.134;5.424;2023-04-30T08:19:41;5.78;;;4.47;;
72085;SDS011;64750;52.134;5.424;2023-04-30T08:22:08;4.53;;;4.10;;
72085;SDS011;64750;52.134;5.424;2023-04-30T08:24:34;6.17;;;4.63;;
72085;SDS011;64750;52.134;5.424;2023-04-30T08:27:01;4.93;;;4.18;;
72085;SDS011;64750;52.134;5.424;2023-04-30T08:29:29;5.20;;;4.35;;
72085;SDS011;64750;52.134;5.424;2023-04-30T08:31:56;5.15;;;4.50;;
72085;SDS011;64750;52.134;5.424;2023-04-30T08:34:27;11.25;;;4.38;;
72085;SDS011;64750;52.134;5.424;2023-04-30T08:36:54;4.67;;;4.37;;
72085;SDS011;64750;52.134;5.424;2023-04-30T08:39:21;4.60;;;4.00;;
72085;SDS011;64750;52.134;5.424;2023-04-30T08:41:49;4.05;;;3.63;;
72085;SDS011;64750;52.134;5.424;2023-04-30T08:44:22;5.63;;;3.65;;
72085;SDS011;64750;52.134;5.424;2023-04-30T08:46:52;6.80;;;4.07;;
72085;SDS011;64750;52.134;5.424;2023-04-30T08:49:23;4.57;;;4.17;;
72085;SDS011;64750;52.134;5.424;2023-04-30T08:51:50;4.63;;;3.72;;
72085;SDS011;64750;52.134;5.424;2023-04-30T08:54:17;5.97;;;3.80;;
72085;SDS011;64750;52.134;5.424;2023-04-30T08:56:44;4.22;;;3.92;;
72085;SDS011;64750;52.134;5.424;2023-04-30T08:59:11;4.15;;;3.75;;
72085;SDS011;64750;52.134;5.424;2023-04-30T09:01:38;4.67;;;3.40;;
72085;SDS011;64750;52.134;5.424;2023-04-30T09:04:06;3.90;;;3.22;;
72085;SDS011;64750;52.134;5.424;2023-04-30T09:06:33;4.13;;;3.20;;
72085;SDS011;64750;52.134;5.424;2023-04-30T09:09:13;5.13;;;2.95;;
72085;SDS011;64750;52.134;5.424;2023-04-30T09:11:40;3.55;;;2.45;;
72085;SDS011;64750;52.134;5.424;2023-04-30T09:14:07;4.87;;;2.27;;
72085;SDS011;64750;52.134;5.424;2023-04-30T09:16:44;3.45;;;2.53;;
72085;SDS011;64750;52.134;5.424;2023-04-30T09:19:21;2.78;;;2.40;;
72085;SDS011;64750;52.134;5.424;2023-04-30T09:21:49;3.17;;;2.75;;
72085;SDS011;64750;52.134;5.424;2023-04-30T09:24:16;2.75;;;2.53;;
72085;SDS011;64750;52.134;5.424;2023-04-30T09:26:44;4.40;;;2.73;;
72085;SDS011;64750;52.134;5.424;2023-04-30T09:29:12;3.03;;;2.60;;
72085;SDS011;64750;52.134;5.424;2023-04-30T09:31:41;5.15;;;2.50;;
72085;SDS011;64750;52.134;5.424;2023-04-30T09:34:10;4.65;;;2.40;;
72085;SDS011;64750;52.134;5.424;2023-04-30T09:36:36;3.92;;;2.40;;
72085;SDS011;64750;52.134;5.424;2023-04-30T09:39:09;3.33;;;2.50;;
72085;SDS011;64750;52.134;5.424;2023-04-30T09:41:41;3.85;;;2.70;;
72085;SDS011;64750;52.134;5.424;2023-04-30T09:44:08;3.28;;;2.38;;
72085;SDS011;64750;52.134;5.424;2023-04-30T09:46:51;2.40;;;2.20;;
72085;SDS011;64750;52.134;5.424;2023-04-30T09:49:18;4.25;;;2.13;;
72085;SDS011;64750;52.134;5.424;2023-04-30T09:54:27;7.57;;;2.70;;
72085;SDS011;64750;52.134;5.424;2023-04-30T09:56:55;3.35;;;2.08;;
72085;SDS011;64750;52.134;5.424;2023-04-30T09:59:27;2.67;;;2.47;;
72085;SDS011;64750;52.134;5.424;2023-04-30T10:01:59;4.70;;;2.55;;
72085;SDS011;64750;52.134;5.424;2023-04-30T10:04:27;2.93;;;2.27;;
72085;SDS011;64750;52.134;5.424;2023-04-30T10:07:09;2.67;;;2.35;;
72085;SDS011;64750;52.134;5.424;2023-04-30T10:09:43;2.67;;;2.30;;
72085;SDS011;64750;52.134;5.424;2023-04-30T10:12:16;2.67;;;2.45;;
72085;SDS011;64750;52.134;5.424;2023-04-30T10:14:56;3.83;;;2.60;;
72085;SDS011;64750;52.134;5.424;2023-04-30T10:17:31;2.77;;;2.40;;
72085;SDS011;64750;52.134;5.424;2023-04-30T10:20:06;2.75;;;2.50;;
72085;SDS011;64750;52.134;5.424;2023-04-30T10:22:34;4.47;;;2.20;;
72085;SDS011;64750;52.134;5.424;2023-04-30T10:25:01;2.50;;;2.30;;
72085;SDS011;64750;52.134;5.424;2023-04-30T10:27:28;3.55;;;2.20;;
72085;SDS011;64750;52.134;5.424;2023-04-30T10:29:55;3.60;;;2.10;;
72085;SDS011;64750;52.134;5.424;2023-04-30T10:32:23;2.85;;;1.90;;
72085;SDS011;64750;52.134;5.424;2023-04-30T10:37:46;2.13;;;1.90;;
72085;SDS011;64750;52.134;5.424;2023-04-30T10:40:19;2.47;;;2.25;;
72085;SDS011;64750;52.134;5.424;2023-04-30T10:42:48;3.70;;;2.10;;
72085;SDS011;64750;52.134;5.424;2023-04-30T10:45:15;2.55;;;2.10;;
72085;SDS011;64750;52.134;5.424;2023-04-30T10:47:42;2.03;;;1.92;;
72085;SDS011;64750;52.134;5.424;2023-04-30T10:50:11;1.83;;;1.70;;
72085;SDS011;64750;52.134;5.424;2023-04-30T10:52:38;2.83;;;1.80;;
72085;SDS011;64750;52.134;5.424;2023-04-30T10:55:05;2.17;;;2.07;;
72085;SDS011;64750;52.134;5.424;2023-04-30T10:57:40;2.35;;;1.85;;
72085;SDS011;64750;52.134;5.424;2023-04-30T11:02:38;3.60;;;1.95;;
72085;SDS011;64750;52.134;5.424;2023-04-30T11:07:33;4.30;;;2.30;;
72085;SDS011;64750;52.134;5.424;2023-04-30T11:10:00;2.20;;;2.00;;
72085;SDS011;64750;52.134;5.424;2023-04-30T11:12:27;2.55;;;2.20;;
72085;SDS011;64750;52.134;5.424;2023-04-30T11:15:05;3.63;;;2.53;;
72085;SDS011;64750;52.134;5.424;2023-04-30T11:17:39;3.60;;;1.88;;
72085;SDS011;64750;52.134;5.424;2023-04-30T11:20:06;1.77;;;1.67;;
72085;SDS011;64750;52.134;5.424;2023-04-30T11:22:38;2.45;;;2.17;;
72085;SDS011;64750;52.134;5.424;2023-04-30T11:25:05;2.17;;;2.00;;
72085;SDS011;64750;52.134;5.424;2023-04-30T11:27:35;2.58;;;1.80;;
72085;SDS011;64750;52.134;5.424;2023-04-30T11:30:08;1.98;;;1.85;;
72085;SDS011;64750;52.134;5.424;2023-04-30T11:32:42;2.90;;;2.60;;
72085;SDS011;64750;52.134;5.424;2023-04-30T11:35:11;2.60;;;1.83;;
72085;SDS011;64750;52.134;5.424;2023-04-30T11:37:39;2.25;;;2.05;;
72085;SDS011;64750;52.134;5.424;2023-04-30T11:40:12;2.70;;;2.17;;
72085;SDS011;64750;52.134;5.424;2023-04-30T11:42:40;2.00;;;1.90;;
72085;SDS011;64750;52.134;5.424;2023-04-30T11:45:12;3.50;;;2.00;;
72085;SDS011;64750;52.134;5.424;2023-04-30T11:47:44;3.92;;;2.13;;
72085;SDS011;64750;52.134;5.424;2023-04-30T11:50:12;3.78;;;2.67;;
72085;SDS011;64750;52.134;5.424;2023-04-30T11:52:40;3.35;;;2.00;;
72085;SDS011;64750;52.134;5.424;2023-04-30T11:55:15;1.63;;;1.52;;
72085;SDS011;64750;52.134;5.424;2023-04-30T11:57:43;1.73;;;1.63;;
72085;SDS011;64750;52.134;5.424;2023-04-30T12:00:20;2.20;;;1.80;;
72085;SDS011;64750;52.134;5.424;2023-04-30T12:02:50;1.85;;;1.75;;
72085;SDS011;64750;52.134;5.424;2023-04-30T12:05:21;2.35;;;2.00;;
72085;SDS011;64750;52.134;5.424;2023-04-30T12:07:56;2.20;;;2.00;;
72085;SDS011;64750;52.134;5.424;2023-04-30T12:10:26;2.57;;;2.37;;
72085;SDS011;64750;52.134;5.424;2023-04-30T12:12:52;4.05;;;1.73;;
72085;SDS011;64750;52.134;5.424;2023-04-30T12:15:20;2.17;;;1.98;;
72085;SDS011;64750;52.134;5.424;2023-04-30T12:17:55;2.42;;;1.58;;
72085;SDS011;64750;52.134;5.424;2023-04-30T12:20:26;1.58;;;1.40;;
72085;SDS011;64750;52.134;5.424;2023-04-30T12:22:56;2.90;;;1.20;;
72085;SDS011;64750;52.134;5.424;2023-04-30T12:25:23;5.13;;;1.55;;
72085;SDS011;64750;52.134;5.424;2023-04-30T12:27:53;1.77;;;1.50;;
72085;SDS011;64750;52.134;5.424;2023-04-30T12:30:20;2.00;;;1.35;;
72085;SDS011;64750;52.134;5.424;2023-04-30T12:32:49;2.50;;;1.77;;
72085;SDS011;64750;52.134;5.424;2023-04-30T12:35:18;3.27;;;1.27;;
72085;SDS011;64750;52.134;5.424;2023-04-30T12:37:54;2.15;;;1.60;;
72085;SDS011;64750;52.134;5.424;2023-04-30T12:40:27;2.80;;;1.90;;
72085;SDS011;64750;52.134;5.424;2023-04-30T12:43:00;1.48;;;1.38;;
72085;SDS011;64750;52.134;5.424;2023-04-30T12:48:13;1.83;;;1.73;;
72085;SDS011;64750;52.134;5.424;2023-04-30T12:50:41;1.60;;;1.50;;
72085;SDS011;64750;52.134;5.424;2023-04-30T12:53:08;1.50;;;1.40;;
72085;SDS011;64750;52.134;5.424;2023-04-30T12:55:34;2.40;;;1.70;;
72085;SDS011;64750;52.134;5.424;2023-04-30T12:58:06;2.80;;;1.33;;
72085;SDS011;64750;52.134;5.424;2023-04-30T13:00:44;1.60;;;1.50;;
72085;SDS011;64750;52.134;5.424;2023-04-30T13:03:12;3.15;;;1.60;;
72085;SDS011;64750;52.134;5.424;2023-04-30T13:05:39;1.73;;;1.38;;
72085;SDS011;64750;52.134;5.424;2023-04-30T13:08:07;1.75;;;1.50;;
72085;SDS011;64750;52.134;5.424;2023-04-30T13:10:34;2.45;;;1.52;;
72085;SDS011;64750;52.134;5.424;2023-04-30T13:13:01;3.53;;;1.40;;
72085;SDS011;64750;52.134;5.424;2023-04-30T13:15:27;1.50;;;1.40;;
72085;SDS011;64750;52.134;5.424;2023-04-30T13:17:54;1.50;;;1.27;;
72085;SDS011;64750;52.134;5.424;2023-04-30T13:20:20;1.75;;;1.05;;
72085;SDS011;64750;52.134;5.424;2023-04-30T13:22:47;1.83;;;0.98;;
72085;SDS011;64750;52.134;5.424;2023-04-30T13:25:13;0.70;;;0.70;;
72085;SDS011;64750;52.134;5.424;2023-04-30T13:27:40;1.17;;;1.08;;
72085;SDS011;64750;52.134;5.424;2023-04-30T13:30:06;0.70;;;0.45;;
72085;SDS011;64750;52.134;5.424;2023-04-30T13:32:33;1.40;;;0.70;;
72085;SDS011;64750;52.134;5.424;2023-04-30T13:35:00;1.00;;;0.60;;
72085;SDS011;64750;52.134;5.424;2023-04-30T13:37:26;0.60;;;0.60;;
72085;SDS011;64750;52.134;5.424;2023-04-30T13:39:53;1.17;;;0.90;;
72085;SDS011;64750;52.134;5.424;2023-04-30T13:42:19;1.23;;;0.90;;
72085;SDS011;64750;52.134;5.424;2023-04-30T13:44:46;2.75;;;1.20;;
72085;SDS011;64750;52.134;5.424;2023-04-30T13:47:15;1.15;;;0.70;;
72085;SDS011;64750;52.134;5.424;2023-04-30T13:49:41;2.33;;;0.83;;
72085;SDS011;64750;52.134;5.424;2023-04-30T13:52:07;1.30;;;0.88;;
72085;SDS011;64750;52.134;5.424;2023-04-30T13:54:34;0.85;;;0.75;;
72085;SDS011;64750;52.134;5.424;2023-04-30T13:57:02;1.13;;;0.90;;
72085;SDS011;64750;52.134;5.424;2023-04-30T13:59:29;1.08;;;0.73;;
72085;SDS011;64750;52.134;5.424;2023-04-30T14:01:56;1.63;;;0.70;;
72085;SDS011;64750;52.134;5.424;2023-04-30T14:04:23;1.08;;;0.60;;
72085;SDS011;64750;52.134;5.424;2023-04-30T14:06:50;0.73;;;0.50;;
72085;SDS011;64750;52.134;5.424;2023-04-30T14:09:16;1.58;;;0.63;;
72085;SDS011;64750;52.134;5.424;2023-04-30T14:11:43;2.83;;;0.60;;
72085;SDS011;64750;52.134;5.424;2023-04-30T14:14:09;1.20;;;0.60;;
72085;SDS011;64750;52.134;5.424;2023-04-30T14:16:36;0.63;;;0.50;;
72085;SDS011;64750;52.134;5.424;2023-04-30T14:19:03;0.60;;;0.50;;
72085;SDS011;64750;52.134;5.424;2023-04-30T14:21:30;1.83;;;0.80;;
72085;SDS011;64750;52.134;5.424;2023-04-30T14:23:58;0.80;;;0.50;;
72085;SDS011;64750;52.134;5.424;2023-04-30T14:26:24;1.80;;;0.50;;
72085;SDS011;64750;52.134;5.424;2023-04-30T14:28:51;0.50;;;0.50;;
72085;SDS011;64750;52.134;5.424;2023-04-30T14:31:17;3.63;;;0.60;;
72085;SDS011;64750;52.134;5.424;2023-04-30T14:33:44;1.27;;;0.50;;
72085;SDS011;64750;52.134;5.424;2023-04-30T14:36:10;1.55;;;0.68;;
72085;SDS011;64750;52.134;5.424;2023-04-30T14:38:37;0.80;;;0.50;;
72085;SDS011;64750;52.134;5.424;2023-04-30T14:41:03;0.55;;;0.45;;
72085;SDS011;64750;52.134;5.424;2023-04-30T14:43:29;1.50;;;0.80;;
72085;SDS011;64750;52.134;5.424;2023-04-30T14:45:56;0.40;;;0.40;;
72085;SDS011;64750;52.134;5.424;2023-04-30T14:48:23;0.88;;;0.60;;
72085;SDS011;64750;52.134;5.424;2023-04-30T14:50:49;4.80;;;0.60;;
72085;SDS011;64750;52.134;5.424;2023-04-30T14:53:17;0.88;;;0.43;;
72085;SDS011;64750;52.134;5.424;2023-04-30T14:55:43;0.90;;;0.50;;
72085;SDS011;64750;52.134;5.424;2023-04-30T14:58:10;2.53;;;0.57;;
72085;SDS011;64750;52.134;5.424;2023-04-30T15:00:36;1.45;;;0.60;;
72085;SDS011;64750;52.134;5.424;2023-04-30T15:03:02;1.33;;;0.67;;
72085;SDS011;64750;52.134;5.424;2023-04-30T15:05:29;1.55;;;0.60;;
72085;SDS011;64750;52.134;5.424;2023-04-30T15:07:56;2.03;;;0.60;;
72085;SDS011;64750;52.134;5.424;2023-04-30T15:10:22;1.63;;;0.60;;
72085;SDS011;64750;52.134;5.424;2023-04-30T15:12:49;0.80;;;0.50;;
72085;SDS011;64750;52.134;5.424;2023-04-30T15:15:15;0.70;;;0.60;;
72085;SDS011;64750;52.134;5.424;2023-04-30T15:17:44;1.40;;;0.57;;
72085;SDS011;64750;52.134;5.424;2023-04-30T15:20:10;1.35;;;0.75;;